sensor_id;sensor_type;location;lat;lon;timestamp;P1;durP1;ratioP1;P2;durP2;ratioP2
19151;SDS011;9708;53.114;9.388;2022-09-09T00:00:24;7.03;;;3.33;;
19151;SDS011;9708;53.114;9.388;2022-09-09T00:02:54;11.03;;;4.40;;
19151;SDS011;9708;53.114;9.388;2022-09-09T00:05:29;5.03;;;3.00;;
19151;SDS011;9708;53.114;9.388;2022-09-09T00:08:04;7.40;;;3.17;;
19151;SDS011;9708;53.114;9.388;2022-09-09T00:10:38;6.97;;;3.90;;
19151;SDS011;9708;53.114;9.388;2022-09-09T00:13:10;5.83;;;3.63;;
19151;SDS011;9708;53.114;9.388;2022-09-09T00:15:45;5.53;;;2.70;;
19151;SDS011;9708;53.114;9.388;2022-09-09T00:18:21;7.17;;;2.93;;
19151;SDS011;9708;53.114;9.388;2022-09-09T00:20:55;7.37;;;3.13;;
19151;SDS011;9708;53.114;9.388;2022-09-09T00:23:32;7.43;;;3.40;;
19151;SDS011;9708;53.114;9.388;2022-09-09T00:26:03;4.20;;;2.50;;
19151;SDS011;9708;53.114;9.388;2022-09-09T00:28:36;6.20;;;3.53;;
19151;SDS011;9708;53.114;9.388;2022-09-09T00:31:10;5.33;;;2.50;;
19151;SDS011;9708;53.114;9.388;2022-09-09T00:33:39;3.97;;;2.90;;
19151;SDS011;9708;53.114;9.388;2022-09-09T00:36:09;7.43;;;3.10;;
19151;SDS011;9708;53.114;9.388;2022-09-09T00:38:42;5.00;;;2.50;;
19151;SDS011;9708;53.114;9.388;2022-09-09T00:41:13;4.80;;;2.67;;
19151;SDS011;9708;53.114;9.388;2022-09-09T00:43:46;6.60;;;3.40;;
19151;SDS011;9708;53.114;9.388;2022-09-09T00:46:40;5.93;;;3.60;;
19151;SDS011;9708;53.114;9.388;2022-09-09T00:49:17;6.60;;;2.90;;
19151;SDS011;9708;53.114;9.388;2022-09-09T00:51:55;5.73;;;2.80;;
19151;SDS011;9708;53.114;9.388;2022-09-09T00:54:35;5.93;;;3.20;;
19151;SDS011;9708;53.114;9.388;2022-09-09T00:57:14;6.63;;;3.67;;
19151;SDS011;9708;53.114;9.388;2022-09-09T00:59:50;4.93;;;3.73;;
19151;SDS011;9708;53.114;9.388;2022-09-09T01:02:22;8.53;;;3.93;;
19151;SDS011;9708;53.114;9.388;2022-09-09T01:04:54;5.73;;;2.40;;
19151;SDS011;9708;53.114;9.388;2022-09-09T01:07:24;7.10;;;3.00;;
19151;SDS011;9708;53.114;9.388;2022-09-09T01:09:54;5.57;;;3.47;;
19151;SDS011;9708;53.114;9.388;2022-09-09T01:12:27;3.60;;;2.70;;
19151;SDS011;9708;53.114;9.388;2022-09-09T01:15:07;8.07;;;4.00;;
19151;SDS011;9708;53.114;9.388;2022-09-09T01:17:39;3.27;;;2.23;;
19151;SDS011;9708;53.114;9.388;2022-09-09T01:20:14;6.27;;;3.63;;
19151;SDS011;9708;53.114;9.388;2022-09-09T01:22:47;8.20;;;4.30;;
19151;SDS011;9708;53.114;9.388;2022-09-09T01:25:30;6.83;;;3.43;;
19151;SDS011;9708;53.114;9.388;2022-09-09T01:28:19;5.60;;;3.07;;
19151;SDS011;9708;53.114;9.388;2022-09-09T01:30:50;6.33;;;2.73;;
19151;SDS011;9708;53.114;9.388;2022-09-09T01:33:17;6.63;;;3.50;;
19151;SDS011;9708;53.114;9.388;2022-09-09T01:35:45;7.93;;;4.33;;
19151;SDS011;9708;53.114;9.388;2022-09-09T01:38:19;6.73;;;3.63;;
19151;SDS011;9708;53.114;9.388;2022-09-09T01:40:46;8.07;;;4.10;;
19151;SDS011;9708;53.114;9.388;2022-09-09T01:43:14;2.03;;;1.80;;
19151;SDS011;9708;53.114;9.388;2022-09-09T01:45:42;4.67;;;3.37;;
19151;SDS011;9708;53.114;9.388;2022-09-09T01:48:10;5.47;;;2.90;;
19151;SDS011;9708;53.114;9.388;2022-09-09T01:50:37;6.03;;;2.93;;
19151;SDS011;9708;53.114;9.388;2022-09-09T01:53:03;4.73;;;2.67;;
19151;SDS011;9708;53.114;9.388;2022-09-09T01:55:32;6.40;;;3.60;;
19151;SDS011;9708;53.114;9.388;2022-09-09T01:58:08;5.03;;;2.93;;
19151;SDS011;9708;53.114;9.388;2022-09-09T02:00:45;5.73;;;3.47;;
19151;SDS011;9708;53.114;9.388;2022-09-09T02:03:24;4.17;;;3.07;;
19151;SDS011;9708;53.114;9.388;2022-09-09T02:05:55;2.77;;;2.00;;
19151;SDS011;9708;53.114;9.388;2022-09-09T02:08:33;4.33;;;2.87;;
19151;SDS011;9708;53.114;9.388;2022-09-09T02:11:06;6.20;;;3.13;;
19151;SDS011;9708;53.114;9.388;2022-09-09T02:13:37;6.10;;;4.17;;
19151;SDS011;9708;53.114;9.388;2022-09-09T02:16:07;3.23;;;2.90;;
19151;SDS011;9708;53.114;9.388;2022-09-09T02:18:38;4.87;;;3.57;;
19151;SDS011;9708;53.114;9.388;2022-09-09T02:21:09;5.20;;;3.00;;
19151;SDS011;9708;53.114;9.388;2022-09-09T02:23:37;6.43;;;3.40;;
19151;SDS011;9708;53.114;9.388;2022-09-09T02:26:07;5.87;;;3.67;;
19151;SDS011;9708;53.114;9.388;2022-09-09T02:28:36;6.43;;;3.20;;
19151;SDS011;9708;53.114;9.388;2022-09-09T02:31:04;6.97;;;3.33;;
19151;SDS011;9708;53.114;9.388;2022-09-09T02:33:35;4.13;;;2.30;;
19151;SDS011;9708;53.114;9.388;2022-09-09T02:36:06;4.17;;;3.10;;
19151;SDS011;9708;53.114;9.388;2022-09-09T02:38:36;3.93;;;2.23;;
19151;SDS011;9708;53.114;9.388;2022-09-09T02:41:06;3.67;;;2.90;;
19151;SDS011;9708;53.114;9.388;2022-09-09T02:43:33;3.67;;;2.37;;
19151;SDS011;9708;53.114;9.388;2022-09-09T02:46:03;4.30;;;3.00;;
19151;SDS011;9708;53.114;9.388;2022-09-09T02:48:36;4.40;;;2.80;;
19151;SDS011;9708;53.114;9.388;2022-09-09T02:51:14;2.87;;;2.23;;
19151;SDS011;9708;53.114;9.388;2022-09-09T02:53:46;5.30;;;2.83;;
19151;SDS011;9708;53.114;9.388;2022-09-09T02:56:19;5.37;;;2.50;;
19151;SDS011;9708;53.114;9.388;2022-09-09T02:58:50;4.60;;;2.30;;
19151;SDS011;9708;53.114;9.388;2022-09-09T03:01:17;3.60;;;2.20;;
19151;SDS011;9708;53.114;9.388;2022-09-09T03:03:45;3.80;;;2.67;;
19151;SDS011;9708;53.114;9.388;2022-09-09T03:06:12;6.47;;;3.17;;
19151;SDS011;9708;53.114;9.388;2022-09-09T03:08:39;5.00;;;2.63;;
19151;SDS011;9708;53.114;9.388;2022-09-09T03:11:07;5.00;;;2.60;;
19151;SDS011;9708;53.114;9.388;2022-09-09T03:13:35;3.27;;;2.13;;
19151;SDS011;9708;53.114;9.388;2022-09-09T03:16:02;2.83;;;2.13;;
19151;SDS011;9708;53.114;9.388;2022-09-09T03:18:30;4.37;;;2.73;;
19151;SDS011;9708;53.114;9.388;2022-09-09T03:20:58;4.43;;;2.20;;
19151;SDS011;9708;53.114;9.388;2022-09-09T03:23:25;4.97;;;2.43;;
19151;SDS011;9708;53.114;9.388;2022-09-09T03:25:52;5.00;;;2.47;;
19151;SDS011;9708;53.114;9.388;2022-09-09T03:28:21;3.53;;;2.27;;
19151;SDS011;9708;53.114;9.388;2022-09-09T03:30:50;3.63;;;2.60;;
19151;SDS011;9708;53.114;9.388;2022-09-09T03:33:16;4.13;;;2.47;;
19151;SDS011;9708;53.114;9.388;2022-09-09T03:35:44;3.67;;;1.93;;
19151;SDS011;9708;53.114;9.388;2022-09-09T03:38:15;3.43;;;2.27;;
19151;SDS011;9708;53.114;9.388;2022-09-09T03:40:48;6.13;;;2.07;;
19151;SDS011;9708;53.114;9.388;2022-09-09T03:43:16;2.67;;;1.70;;
19151;SDS011;9708;53.114;9.388;2022-09-09T03:45:44;2.83;;;1.87;;
19151;SDS011;9708;53.114;9.388;2022-09-09T03:48:12;3.30;;;2.50;;
19151;SDS011;9708;53.114;9.388;2022-09-09T03:50:43;3.57;;;1.53;;
19151;SDS011;9708;53.114;9.388;2022-09-09T03:53:10;3.10;;;1.80;;
19151;SDS011;9708;53.114;9.388;2022-09-09T03:55:38;2.00;;;1.80;;
19151;SDS011;9708;53.114;9.388;2022-09-09T03:58:06;2.77;;;1.80;;
19151;SDS011;9708;53.114;9.388;2022-09-09T04:00:33;1.57;;;1.47;;
19151;SDS011;9708;53.114;9.388;2022-09-09T04:03:00;3.83;;;1.83;;
19151;SDS011;9708;53.114;9.388;2022-09-09T04:05:27;1.40;;;1.30;;
19151;SDS011;9708;53.114;9.388;2022-09-09T04:07:54;4.43;;;2.67;;
19151;SDS011;9708;53.114;9.388;2022-09-09T04:10:20;2.17;;;1.77;;
19151;SDS011;9708;53.114;9.388;2022-09-09T04:12:49;3.57;;;2.03;;
19151;SDS011;9708;53.114;9.388;2022-09-09T04:15:16;2.00;;;1.60;;
19151;SDS011;9708;53.114;9.388;2022-09-09T04:17:43;4.40;;;1.80;;
19151;SDS011;9708;53.114;9.388;2022-09-09T04:20:10;4.27;;;2.30;;
19151;SDS011;9708;53.114;9.388;2022-09-09T04:22:37;2.23;;;2.00;;
19151;SDS011;9708;53.114;9.388;2022-09-09T04:25:05;1.90;;;1.50;;
19151;SDS011;9708;53.114;9.388;2022-09-09T04:27:32;3.17;;;2.83;;
19151;SDS011;9708;53.114;9.388;2022-09-09T04:30:00;1.93;;;1.27;;
19151;SDS011;9708;53.114;9.388;2022-09-09T04:32:27;2.10;;;1.47;;
19151;SDS011;9708;53.114;9.388;2022-09-09T04:34:53;1.63;;;1.50;;
19151;SDS011;9708;53.114;9.388;2022-09-09T04:37:20;1.53;;;1.20;;
19151;SDS011;9708;53.114;9.388;2022-09-09T04:39:47;1.30;;;1.20;;
19151;SDS011;9708;53.114;9.388;2022-09-09T04:42:13;3.00;;;1.70;;
19151;SDS011;9708;53.114;9.388;2022-09-09T04:44:41;1.10;;;0.93;;
19151;SDS011;9708;53.114;9.388;2022-09-09T04:47:09;2.77;;;1.40;;
19151;SDS011;9708;53.114;9.388;2022-09-09T04:49:37;6.10;;;2.30;;
19151;SDS011;9708;53.114;9.388;2022-09-09T04:52:04;1.93;;;1.43;;
19151;SDS011;9708;53.114;9.388;2022-09-09T04:54:31;1.00;;;0.90;;
19151;SDS011;9708;53.114;9.388;2022-09-09T04:56:57;1.30;;;1.17;;
19151;SDS011;9708;53.114;9.388;2022-09-09T04:59:24;1.50;;;1.40;;
19151;SDS011;9708;53.114;9.388;2022-09-09T05:01:51;1.37;;;1.10;;
19151;SDS011;9708;53.114;9.388;2022-09-09T05:04:21;1.47;;;1.20;;
19151;SDS011;9708;53.114;9.388;2022-09-09T05:06:48;0.90;;;0.90;;
19151;SDS011;9708;53.114;9.388;2022-09-09T05:09:15;1.47;;;1.30;;
19151;SDS011;9708;53.114;9.388;2022-09-09T05:11:42;1.03;;;1.03;;
19151;SDS011;9708;53.114;9.388;2022-09-09T05:14:09;2.63;;;1.30;;
19151;SDS011;9708;53.114;9.388;2022-09-09T05:16:37;3.50;;;1.33;;
19151;SDS011;9708;53.114;9.388;2022-09-09T05:19:04;1.27;;;1.13;;
19151;SDS011;9708;53.114;9.388;2022-09-09T05:21:34;1.70;;;1.13;;
19151;SDS011;9708;53.114;9.388;2022-09-09T05:24:01;1.37;;;1.27;;
19151;SDS011;9708;53.114;9.388;2022-09-09T05:26:28;1.47;;;1.20;;
19151;SDS011;9708;53.114;9.388;2022-09-09T05:28:56;1.47;;;1.37;;
19151;SDS011;9708;53.114;9.388;2022-09-09T05:31:24;3.77;;;2.07;;
19151;SDS011;9708;53.114;9.388;2022-09-09T05:33:54;0.80;;;0.80;;
19151;SDS011;9708;53.114;9.388;2022-09-09T05:36:21;1.57;;;1.37;;
19151;SDS011;9708;53.114;9.388;2022-09-09T05:38:50;1.80;;;1.70;;
19151;SDS011;9708;53.114;9.388;2022-09-09T05:41:18;1.80;;;1.60;;
19151;SDS011;9708;53.114;9.388;2022-09-09T05:43:46;1.63;;;1.23;;
19151;SDS011;9708;53.114;9.388;2022-09-09T05:46:14;1.20;;;1.10;;
19151;SDS011;9708;53.114;9.388;2022-09-09T05:48:43;0.90;;;0.87;;
19151;SDS011;9708;53.114;9.388;2022-09-09T05:51:12;1.90;;;1.10;;
19151;SDS011;9708;53.114;9.388;2022-09-09T05:53:41;1.70;;;1.00;;
19151;SDS011;9708;53.114;9.388;2022-09-09T05:56:10;1.33;;;1.13;;
19151;SDS011;9708;53.114;9.388;2022-09-09T05:58:39;1.70;;;1.17;;
19151;SDS011;9708;53.114;9.388;2022-09-09T06:01:09;3.00;;;2.30;;
19151;SDS011;9708;53.114;9.388;2022-09-09T06:03:36;2.13;;;1.10;;
19151;SDS011;9708;53.114;9.388;2022-09-09T06:06:05;2.53;;;1.33;;
19151;SDS011;9708;53.114;9.388;2022-09-09T06:08:33;1.03;;;0.93;;
19151;SDS011;9708;53.114;9.388;2022-09-09T06:11:02;1.63;;;1.23;;
19151;SDS011;9708;53.114;9.388;2022-09-09T06:13:31;0.60;;;0.60;;
19151;SDS011;9708;53.114;9.388;2022-09-09T06:15:58;1.57;;;1.47;;
19151;SDS011;9708;53.114;9.388;2022-09-09T06:18:25;0.90;;;0.87;;
19151;SDS011;9708;53.114;9.388;2022-09-09T06:20:53;1.00;;;1.00;;
19151;SDS011;9708;53.114;9.388;2022-09-09T06:23:21;2.40;;;1.20;;
19151;SDS011;9708;53.114;9.388;2022-09-09T06:25:48;0.80;;;0.80;;
19151;SDS011;9708;53.114;9.388;2022-09-09T06:28:16;1.23;;;1.13;;
19151;SDS011;9708;53.114;9.388;2022-09-09T06:30:44;1.30;;;0.90;;
19151;SDS011;9708;53.114;9.388;2022-09-09T06:33:12;1.50;;;0.97;;
19151;SDS011;9708;53.114;9.388;2022-09-09T06:35:39;1.10;;;1.10;;
19151;SDS011;9708;53.114;9.388;2022-09-09T06:38:06;1.87;;;1.20;;
19151;SDS011;9708;53.114;9.388;2022-09-09T06:40:33;2.23;;;1.47;;
19151;SDS011;9708;53.114;9.388;2022-09-09T06:43:00;1.30;;;1.20;;
19151;SDS011;9708;53.114;9.388;2022-09-09T06:45:27;0.90;;;0.90;;
19151;SDS011;9708;53.114;9.388;2022-09-09T06:47:55;2.03;;;1.67;;
19151;SDS011;9708;53.114;9.388;2022-09-09T06:50:22;1.03;;;0.97;;
19151;SDS011;9708;53.114;9.388;2022-09-09T06:52:49;2.90;;;1.03;;
19151;SDS011;9708;53.114;9.388;2022-09-09T06:55:16;0.80;;;0.80;;
19151;SDS011;9708;53.114;9.388;2022-09-09T06:57:44;1.50;;;1.13;;
19151;SDS011;9708;53.114;9.388;2022-09-09T07:00:11;1.20;;;0.83;;
19151;SDS011;9708;53.114;9.388;2022-09-09T07:02:39;2.03;;;1.33;;
19151;SDS011;9708;53.114;9.388;2022-09-09T07:05:08;2.33;;;0.83;;
19151;SDS011;9708;53.114;9.388;2022-09-09T07:07:35;1.90;;;1.40;;
19151;SDS011;9708;53.114;9.388;2022-09-09T07:10:02;1.20;;;1.03;;
19151;SDS011;9708;53.114;9.388;2022-09-09T07:12:30;1.10;;;1.03;;
19151;SDS011;9708;53.114;9.388;2022-09-09T07:14:57;2.17;;;1.60;;
19151;SDS011;9708;53.114;9.388;2022-09-09T07:17:23;1.17;;;1.07;;
19151;SDS011;9708;53.114;9.388;2022-09-09T07:19:50;1.43;;;1.07;;
19151;SDS011;9708;53.114;9.388;2022-09-09T07:22:18;1.83;;;1.50;;
19151;SDS011;9708;53.114;9.388;2022-09-09T07:24:45;1.70;;;1.60;;
19151;SDS011;9708;53.114;9.388;2022-09-09T07:27:12;1.23;;;1.13;;
19151;SDS011;9708;53.114;9.388;2022-09-09T07:29:39;2.20;;;2.10;;
19151;SDS011;9708;53.114;9.388;2022-09-09T07:32:05;1.20;;;0.95;;
19151;SDS011;9708;53.114;9.388;2022-09-09T07:34:33;2.40;;;1.63;;
19151;SDS011;9708;53.114;9.388;2022-09-09T07:36:59;1.27;;;0.93;;
19151;SDS011;9708;53.114;9.388;2022-09-09T07:39:27;1.42;;;1.33;;
19151;SDS011;9708;53.114;9.388;2022-09-09T07:41:54;1.48;;;0.70;;
19151;SDS011;9708;53.114;9.388;2022-09-09T07:44:21;1.85;;;1.17;;
19151;SDS011;9708;53.114;9.388;2022-09-09T07:46:50;1.50;;;0.98;;
19151;SDS011;9708;53.114;9.388;2022-09-09T07:49:16;4.68;;;1.33;;
19151;SDS011;9708;53.114;9.388;2022-09-09T07:51:44;1.83;;;1.52;;
19151;SDS011;9708;53.114;9.388;2022-09-09T07:54:13;2.20;;;1.08;;
19151;SDS011;9708;53.114;9.388;2022-09-09T07:56:43;0.95;;;0.90;;
19151;SDS011;9708;53.114;9.388;2022-09-09T07:59:10;3.85;;;1.10;;
19151;SDS011;9708;53.114;9.388;2022-09-09T08:01:38;0.80;;;0.80;;
19151;SDS011;9708;53.114;9.388;2022-09-09T08:04:06;1.92;;;0.80;;
19151;SDS011;9708;53.114;9.388;2022-09-09T08:06:35;0.88;;;0.68;;
19151;SDS011;9708;53.114;9.388;2022-09-09T08:09:04;1.15;;;1.05;;
19151;SDS011;9708;53.114;9.388;2022-09-09T08:11:32;0.70;;;0.70;;
19151;SDS011;9708;53.114;9.388;2022-09-09T08:14:00;0.88;;;0.88;;
19151;SDS011;9708;53.114;9.388;2022-09-09T08:16:29;2.35;;;1.75;;
19151;SDS011;9708;53.114;9.388;2022-09-09T08:18:58;0.65;;;0.65;;
19151;SDS011;9708;53.114;9.388;2022-09-09T08:21:26;1.00;;;1.00;;
19151;SDS011;9708;53.114;9.388;2022-09-09T08:23:54;0.85;;;0.85;;
19151;SDS011;9708;53.114;9.388;2022-09-09T08:26:22;0.57;;;0.57;;
19151;SDS011;9708;53.114;9.388;2022-09-09T08:28:52;1.17;;;0.82;;
19151;SDS011;9708;53.114;9.388;2022-09-09T08:31:22;1.05;;;0.80;;
19151;SDS011;9708;53.114;9.388;2022-09-09T08:33:50;1.23;;;0.90;;
19151;SDS011;9708;53.114;9.388;2022-09-09T08:36:18;2.03;;;0.93;;
19151;SDS011;9708;53.114;9.388;2022-09-09T08:38:47;1.10;;;1.00;;
19151;SDS011;9708;53.114;9.388;2022-09-09T08:41:20;0.95;;;0.85;;
19151;SDS011;9708;53.114;9.388;2022-09-09T08:44:02;1.20;;;0.75;;
19151;SDS011;9708;53.114;9.388;2022-09-09T08:46:36;1.08;;;0.98;;
19151;SDS011;9708;53.114;9.388;2022-09-09T08:49:15;1.02;;;0.98;;
19151;SDS011;9708;53.114;9.388;2022-09-09T08:51:52;0.63;;;0.60;;
19151;SDS011;9708;53.114;9.388;2022-09-09T08:54:21;0.70;;;0.70;;
19151;SDS011;9708;53.114;9.388;2022-09-09T08:56:48;0.93;;;0.93;;
19151;SDS011;9708;53.114;9.388;2022-09-09T08:59:16;2.15;;;1.30;;
19151;SDS011;9708;53.114;9.388;2022-09-09T09:01:52;0.60;;;0.60;;
19151;SDS011;9708;53.114;9.388;2022-09-09T09:04:32;0.85;;;0.80;;
19151;SDS011;9708;53.114;9.388;2022-09-09T09:07:08;1.42;;;1.15;;
19151;SDS011;9708;53.114;9.388;2022-09-09T09:09:46;1.40;;;1.30;;
19151;SDS011;9708;53.114;9.388;2022-09-09T09:12:24;1.00;;;0.98;;
19151;SDS011;9708;53.114;9.388;2022-09-09T09:14:54;2.08;;;1.42;;
19151;SDS011;9708;53.114;9.388;2022-09-09T09:17:25;0.80;;;0.80;;
19151;SDS011;9708;53.114;9.388;2022-09-09T09:19:56;1.33;;;1.13;;
19151;SDS011;9708;53.114;9.388;2022-09-09T09:22:25;2.00;;;1.00;;
19151;SDS011;9708;53.114;9.388;2022-09-09T09:25:00;0.90;;;0.90;;
19151;SDS011;9708;53.114;9.388;2022-09-09T09:27:36;2.33;;;1.20;;
19151;SDS011;9708;53.114;9.388;2022-09-09T09:30:12;2.30;;;0.77;;
19151;SDS011;9708;53.114;9.388;2022-09-09T09:32:44;1.65;;;0.85;;
19151;SDS011;9708;53.114;9.388;2022-09-09T09:35:16;4.32;;;1.25;;
19151;SDS011;9708;53.114;9.388;2022-09-09T09:37:43;0.93;;;0.85;;
19151;SDS011;9708;53.114;9.388;2022-09-09T09:40:10;1.17;;;1.08;;
19151;SDS011;9708;53.114;9.388;2022-09-09T09:42:38;1.33;;;1.23;;
19151;SDS011;9708;53.114;9.388;2022-09-09T09:45:16;2.67;;;1.63;;
19151;SDS011;9708;53.114;9.388;2022-09-09T09:47:58;3.10;;;2.33;;
19151;SDS011;9708;53.114;9.388;2022-09-09T09:50:25;1.60;;;1.20;;
19151;SDS011;9708;53.114;9.388;2022-09-09T09:52:55;2.80;;;1.08;;
19151;SDS011;9708;53.114;9.388;2022-09-09T09:55:23;1.15;;;1.15;;
19151;SDS011;9708;53.114;9.388;2022-09-09T09:57:51;1.55;;;1.45;;
19151;SDS011;9708;53.114;9.388;2022-09-09T10:00:19;1.10;;;1.10;;
19151;SDS011;9708;53.114;9.388;2022-09-09T10:02:47;0.90;;;0.90;;
19151;SDS011;9708;53.114;9.388;2022-09-09T10:05:18;1.45;;;1.35;;
19151;SDS011;9708;53.114;9.388;2022-09-09T10:07:46;1.20;;;0.90;;
19151;SDS011;9708;53.114;9.388;2022-09-09T10:10:26;1.20;;;1.10;;
19151;SDS011;9708;53.114;9.388;2022-09-09T10:13:01;1.35;;;1.25;;
19151;SDS011;9708;53.114;9.388;2022-09-09T10:15:37;1.35;;;1.25;;
19151;SDS011;9708;53.114;9.388;2022-09-09T10:18:18;2.45;;;1.05;;
19151;SDS011;9708;53.114;9.388;2022-09-09T10:20:58;1.05;;;0.95;;
19151;SDS011;9708;53.114;9.388;2022-09-09T10:23:38;2.28;;;1.10;;
19151;SDS011;9708;53.114;9.388;2022-09-09T10:26:22;0.90;;;0.90;;
19151;SDS011;9708;53.114;9.388;2022-09-09T10:29:03;1.13;;;0.98;;
19151;SDS011;9708;53.114;9.388;2022-09-09T10:31:44;1.40;;;1.30;;
19151;SDS011;9708;53.114;9.388;2022-09-09T10:34:19;0.95;;;0.95;;
19151;SDS011;9708;53.114;9.388;2022-09-09T10:36:59;0.98;;;0.80;;
19151;SDS011;9708;53.114;9.388;2022-09-09T10:39:32;1.48;;;1.27;;
19151;SDS011;9708;53.114;9.388;2022-09-09T10:42:03;0.98;;;0.98;;
19151;SDS011;9708;53.114;9.388;2022-09-09T10:44:37;1.02;;;1.02;;
19151;SDS011;9708;53.114;9.388;2022-09-09T10:47:21;1.38;;;1.25;;
19151;SDS011;9708;53.114;9.388;2022-09-09T10:50:09;0.77;;;0.77;;
19151;SDS011;9708;53.114;9.388;2022-09-09T10:52:47;1.60;;;1.50;;
19151;SDS011;9708;53.114;9.388;2022-09-09T10:55:24;0.82;;;0.82;;
19151;SDS011;9708;53.114;9.388;2022-09-09T10:57:54;0.95;;;0.95;;
19151;SDS011;9708;53.114;9.388;2022-09-09T11:00:25;1.00;;;1.00;;
19151;SDS011;9708;53.114;9.388;2022-09-09T11:03:01;1.00;;;1.00;;
19151;SDS011;9708;53.114;9.388;2022-09-09T11:05:30;1.60;;;1.27;;
19151;SDS011;9708;53.114;9.388;2022-09-09T11:08:04;1.05;;;0.95;;
19151;SDS011;9708;53.114;9.388;2022-09-09T11:10:34;0.80;;;0.80;;
19151;SDS011;9708;53.114;9.388;2022-09-09T11:13:10;1.52;;;1.42;;
19151;SDS011;9708;53.114;9.388;2022-09-09T11:15:44;1.02;;;1.00;;
19151;SDS011;9708;53.114;9.388;2022-09-09T11:18:16;1.10;;;1.10;;
19151;SDS011;9708;53.114;9.388;2022-09-09T11:20:48;2.58;;;1.50;;
19151;SDS011;9708;53.114;9.388;2022-09-09T11:23:20;1.38;;;1.20;;
19151;SDS011;9708;53.114;9.388;2022-09-09T11:25:51;0.63;;;0.63;;
19151;SDS011;9708;53.114;9.388;2022-09-09T11:28:27;0.70;;;0.70;;
19151;SDS011;9708;53.114;9.388;2022-09-09T11:31:12;0.90;;;0.90;;
19151;SDS011;9708;53.114;9.388;2022-09-09T11:33:58;0.85;;;0.85;;
19151;SDS011;9708;53.114;9.388;2022-09-09T11:36:53;2.17;;;0.80;;
19151;SDS011;9708;53.114;9.388;2022-09-09T11:42:24;0.93;;;0.88;;
19151;SDS011;9708;53.114;9.388;2022-09-09T11:44:51;0.80;;;0.80;;
19151;SDS011;9708;53.114;9.388;2022-09-09T11:47:21;0.77;;;0.77;;
19151;SDS011;9708;53.114;9.388;2022-09-09T11:49:54;3.22;;;1.60;;
19151;SDS011;9708;53.114;9.388;2022-09-09T11:52:22;1.08;;;1.00;;
19151;SDS011;9708;53.114;9.388;2022-09-09T11:54:54;2.03;;;1.13;;
19151;SDS011;9708;53.114;9.388;2022-09-09T11:57:23;1.65;;;1.30;;
19151;SDS011;9708;53.114;9.388;2022-09-09T11:59:55;0.73;;;0.73;;
19151;SDS011;9708;53.114;9.388;2022-09-09T12:02:23;1.00;;;1.00;;
19151;SDS011;9708;53.114;9.388;2022-09-09T12:04:54;0.80;;;0.80;;
19151;SDS011;9708;53.114;9.388;2022-09-09T12:07:27;1.30;;;0.93;;
19151;SDS011;9708;53.114;9.388;2022-09-09T12:10:02;0.70;;;0.70;;
19151;SDS011;9708;53.114;9.388;2022-09-09T12:12:32;0.80;;;0.80;;
19151;SDS011;9708;53.114;9.388;2022-09-09T12:17:46;0.60;;;0.60;;
19151;SDS011;9708;53.114;9.388;2022-09-09T12:20:15;9.38;;;1.30;;
19151;SDS011;9708;53.114;9.388;2022-09-09T12:22:52;1.65;;;1.55;;
19151;SDS011;9708;53.114;9.388;2022-09-09T12:25:35;1.48;;;0.98;;
19151;SDS011;9708;53.114;9.388;2022-09-09T12:28:15;1.05;;;0.80;;
19151;SDS011;9708;53.114;9.388;2022-09-09T12:30:47;3.03;;;0.70;;
19151;SDS011;9708;53.114;9.388;2022-09-09T12:33:22;4.82;;;1.63;;
19151;SDS011;9708;53.114;9.388;2022-09-09T12:35:51;0.82;;;0.82;;
19151;SDS011;9708;53.114;9.388;2022-09-09T12:38:22;1.08;;;1.02;;
19151;SDS011;9708;53.114;9.388;2022-09-09T12:40:57;1.33;;;1.23;;
19151;SDS011;9708;53.114;9.388;2022-09-09T12:43:25;1.60;;;1.50;;
19151;SDS011;9708;53.114;9.388;2022-09-09T12:45:54;1.00;;;0.95;;
19151;SDS011;9708;53.114;9.388;2022-09-09T12:48:27;2.00;;;1.65;;
19151;SDS011;9708;53.114;9.388;2022-09-09T12:50:57;1.35;;;1.25;;
19151;SDS011;9708;53.114;9.388;2022-09-09T12:53:25;1.85;;;1.05;;
19151;SDS011;9708;53.114;9.388;2022-09-09T12:55:57;0.98;;;0.98;;
19151;SDS011;9708;53.114;9.388;2022-09-09T12:58:27;0.60;;;0.60;;
19151;SDS011;9708;53.114;9.388;2022-09-09T13:00:58;0.40;;;0.40;;
19151;SDS011;9708;53.114;9.388;2022-09-09T13:03:26;2.25;;;1.00;;
19151;SDS011;9708;53.114;9.388;2022-09-09T13:05:53;0.70;;;0.70;;
19151;SDS011;9708;53.114;9.388;2022-09-09T13:08:25;0.80;;;0.80;;
19151;SDS011;9708;53.114;9.388;2022-09-09T13:10:53;1.85;;;0.73;;
19151;SDS011;9708;53.114;9.388;2022-09-09T13:13:26;0.65;;;0.65;;
19151;SDS011;9708;53.114;9.388;2022-09-09T13:15:56;0.73;;;0.73;;
19151;SDS011;9708;53.114;9.388;2022-09-09T13:18:24;0.70;;;0.70;;
19151;SDS011;9708;53.114;9.388;2022-09-09T13:20:53;1.27;;;0.70;;
19151;SDS011;9708;53.114;9.388;2022-09-09T13:23:22;0.70;;;0.70;;
19151;SDS011;9708;53.114;9.388;2022-09-09T13:25:55;1.70;;;0.77;;
19151;SDS011;9708;53.114;9.388;2022-09-09T13:28:23;0.82;;;0.82;;
19151;SDS011;9708;53.114;9.388;2022-09-09T13:30:57;1.15;;;1.08;;
19151;SDS011;9708;53.114;9.388;2022-09-09T13:33:31;1.27;;;0.73;;
19151;SDS011;9708;53.114;9.388;2022-09-09T13:35:59;1.65;;;1.33;;
19151;SDS011;9708;53.114;9.388;2022-09-09T13:38:29;3.70;;;2.00;;
19151;SDS011;9708;53.114;9.388;2022-09-09T13:41:00;1.38;;;1.13;;
19151;SDS011;9708;53.114;9.388;2022-09-09T13:43:29;0.90;;;0.90;;
19151;SDS011;9708;53.114;9.388;2022-09-09T13:46:01;1.65;;;1.40;;
19151;SDS011;9708;53.114;9.388;2022-09-09T13:48:30;0.88;;;0.88;;
19151;SDS011;9708;53.114;9.388;2022-09-09T13:50:58;1.60;;;0.82;;
19151;SDS011;9708;53.114;9.388;2022-09-09T13:53:27;1.35;;;1.25;;
19151;SDS011;9708;53.114;9.388;2022-09-09T13:55:54;1.55;;;1.13;;
19151;SDS011;9708;53.114;9.388;2022-09-09T13:58:22;0.55;;;0.55;;
19151;SDS011;9708;53.114;9.388;2022-09-09T14:00:50;1.17;;;0.65;;
19151;SDS011;9708;53.114;9.388;2022-09-09T14:03:18;0.55;;;0.55;;
19151;SDS011;9708;53.114;9.388;2022-09-09T14:05:45;0.82;;;0.82;;
19151;SDS011;9708;53.114;9.388;2022-09-09T14:08:15;2.25;;;0.90;;
19151;SDS011;9708;53.114;9.388;2022-09-09T14:10:47;0.95;;;0.88;;
19151;SDS011;9708;53.114;9.388;2022-09-09T14:13:14;0.77;;;0.77;;
19151;SDS011;9708;53.114;9.388;2022-09-09T14:15:41;0.95;;;0.90;;
19151;SDS011;9708;53.114;9.388;2022-09-09T14:18:09;0.73;;;0.73;;
19151;SDS011;9708;53.114;9.388;2022-09-09T14:20:38;3.10;;;0.90;;
19151;SDS011;9708;53.114;9.388;2022-09-09T14:23:05;3.90;;;1.10;;
19151;SDS011;9708;53.114;9.388;2022-09-09T14:25:32;0.70;;;0.70;;
19151;SDS011;9708;53.114;9.388;2022-09-09T14:27:59;0.80;;;0.80;;
19151;SDS011;9708;53.114;9.388;2022-09-09T14:30:27;1.40;;;1.20;;
19151;SDS011;9708;53.114;9.388;2022-09-09T14:32:53;0.93;;;0.93;;
19151;SDS011;9708;53.114;9.388;2022-09-09T14:35:20;7.32;;;1.25;;
19151;SDS011;9708;53.114;9.388;2022-09-09T14:37:48;0.88;;;0.70;;
19151;SDS011;9708;53.114;9.388;2022-09-09T14:40:15;0.80;;;0.80;;
19151;SDS011;9708;53.114;9.388;2022-09-09T14:42:42;1.77;;;0.70;;
19151;SDS011;9708;53.114;9.388;2022-09-09T14:45:10;0.95;;;0.70;;
19151;SDS011;9708;53.114;9.388;2022-09-09T14:47:37;0.70;;;0.70;;
19151;SDS011;9708;53.114;9.388;2022-09-09T14:50:04;0.77;;;0.77;;
19151;SDS011;9708;53.114;9.388;2022-09-09T14:52:33;0.73;;;0.65;;
19151;SDS011;9708;53.114;9.388;2022-09-09T14:55:01;0.70;;;0.70;;
19151;SDS011;9708;53.114;9.388;2022-09-09T14:57:28;0.65;;;0.65;;
19151;SDS011;9708;53.114;9.388;2022-09-09T14:59:55;1.95;;;1.00;;
19151;SDS011;9708;53.114;9.388;2022-09-09T15:02:21;1.02;;;0.98;;
19151;SDS011;9708;53.114;9.388;2022-09-09T15:04:48;0.68;;;0.68;;
19151;SDS011;9708;53.114;9.388;2022-09-09T15:07:16;0.93;;;0.88;;
19151;SDS011;9708;53.114;9.388;2022-09-09T15:09:44;1.27;;;1.15;;
19151;SDS011;9708;53.114;9.388;2022-09-09T15:12:14;1.10;;;1.00;;
19151;SDS011;9708;53.114;9.388;2022-09-09T15:14:40;1.33;;;1.17;;
19151;SDS011;9708;53.114;9.388;2022-09-09T15:17:07;2.42;;;1.02;;
19151;SDS011;9708;53.114;9.388;2022-09-09T15:19:34;0.90;;;0.90;;
19151;SDS011;9708;53.114;9.388;2022-09-09T15:22:01;1.00;;;1.00;;
19151;SDS011;9708;53.114;9.388;2022-09-09T15:24:30;0.90;;;0.90;;